Chandler Field Alexandria US
ICAO: KAXN
IATA: AXN
Category: Medium
Scheduled Services: No

Elevation: 1425 ft
TransAlt. 18000 ft.

Airport Communications:
ASOS:118.375
MINNEAPOLIS CNTR:126.1
PRINCETON RDO:122.6
CTAF/UNICOM:123

KAXN Zoom In..

Runways:

(A) RW 04 length 4098 ft width 75 ft
---- / hdg 45

(B) RW 13 length 5099 ft width 100 ft
---- / hdg 135

(C) RW 22 length 4098 ft width 75 ft
---- / hdg 225

(D) RW 31 length 5099 ft width 100 ft
ILS 110.50 / hdg 315

Location; KAXN
Day. 20 / Time. 16.53 Zulu
* Altimeter: 30.27
* Temperature: 18° c. 64.4°f.
* Wind from: 050° Speed 11 kn.
Dewpoint: 01° c.
Visibility: 10 Statute Miles.
Clouds: Clear (automated report).

KAXN 201653Z AUTO 05011KT 10SM CLR 18/01 A3027 RMK AO2 SLP254 T01780006


Wind From 050°
Speed 11 kn.

 
 
jpsmedia.com for Web Design SOUNDCLOUD worldairports.se 2018   terms of use